sensor_id;sensor_type;location;lat;lon;timestamp;P1;durP1;ratioP1;P2;durP2;ratioP2
13609;SDS011;6876;50.788;4.940;2023-06-22T00:02:34;8.77;;;7.20;;
13609;SDS011;6876;50.788;4.940;2023-06-22T00:05:22;8.65;;;7.40;;
13609;SDS011;6876;50.788;4.940;2023-06-22T00:08:09;8.63;;;6.82;;
13609;SDS011;6876;50.788;4.940;2023-06-22T00:10:57;7.80;;;6.93;;
13609;SDS011;6876;50.788;4.940;2023-06-22T00:13:45;9.00;;;6.88;;
13609;SDS011;6876;50.788;4.940;2023-06-22T00:16:33;6.93;;;5.78;;
13609;SDS011;6876;50.788;4.940;2023-06-22T00:19:20;7.10;;;6.32;;
13609;SDS011;6876;50.788;4.940;2023-06-22T00:22:07;7.32;;;6.13;;
13609;SDS011;6876;50.788;4.940;2023-06-22T00:24:55;6.65;;;6.05;;
13609;SDS011;6876;50.788;4.940;2023-06-22T00:27:43;7.25;;;6.13;;
13609;SDS011;6876;50.788;4.940;2023-06-22T00:30:31;7.88;;;7.05;;
13609;SDS011;6876;50.788;4.940;2023-06-22T00:33:18;7.03;;;6.32;;
13609;SDS011;6876;50.788;4.940;2023-06-22T00:36:05;7.07;;;6.38;;
13609;SDS011;6876;50.788;4.940;2023-06-22T00:38:53;6.88;;;5.90;;
13609;SDS011;6876;50.788;4.940;2023-06-22T00:41:40;6.80;;;6.03;;
13609;SDS011;6876;50.788;4.940;2023-06-22T00:44:29;7.90;;;5.95;;
13609;SDS011;6876;50.788;4.940;2023-06-22T00:47:17;7.25;;;6.20;;
13609;SDS011;6876;50.788;4.940;2023-06-22T00:50:05;8.30;;;5.43;;
13609;SDS011;6876;50.788;4.940;2023-06-22T00:52:56;6.72;;;6.03;;
13609;SDS011;6876;50.788;4.940;2023-06-22T00:55:45;7.70;;;6.07;;
13609;SDS011;6876;50.788;4.940;2023-06-22T00:58:33;7.32;;;6.15;;
13609;SDS011;6876;50.788;4.940;2023-06-22T01:01:22;7.38;;;6.03;;
13609;SDS011;6876;50.788;4.940;2023-06-22T01:04:10;8.25;;;6.85;;
13609;SDS011;6876;50.788;4.940;2023-06-22T01:06:58;8.68;;;6.40;;
13609;SDS011;6876;50.788;4.940;2023-06-22T01:09:56;7.70;;;6.63;;
13609;SDS011;6876;50.788;4.940;2023-06-22T01:12:48;6.85;;;6.13;;
13609;SDS011;6876;50.788;4.940;2023-06-22T01:15:39;8.90;;;6.65;;
13609;SDS011;6876;50.788;4.940;2023-06-22T01:18:32;6.65;;;6.05;;
13609;SDS011;6876;50.788;4.940;2023-06-22T01:21:23;9.98;;;6.88;;
13609;SDS011;6876;50.788;4.940;2023-06-22T01:24:15;7.55;;;6.13;;
13609;SDS011;6876;50.788;4.940;2023-06-22T01:27:09;6.03;;;5.40;;
13609;SDS011;6876;50.788;4.940;2023-06-22T01:30:11;7.43;;;6.00;;
13609;SDS011;6876;50.788;4.940;2023-06-22T01:33:02;7.35;;;6.50;;
13609;SDS011;6876;50.788;4.940;2023-06-22T01:35:51;7.82;;;6.22;;
13609;SDS011;6876;50.788;4.940;2023-06-22T01:38:38;9.70;;;5.85;;
13609;SDS011;6876;50.788;4.940;2023-06-22T01:41:26;7.43;;;5.75;;
13609;SDS011;6876;50.788;4.940;2023-06-22T01:44:15;6.78;;;6.07;;
13609;SDS011;6876;50.788;4.940;2023-06-22T01:47:04;6.50;;;5.85;;
13609;SDS011;6876;50.788;4.940;2023-06-22T01:49:53;7.07;;;6.20;;
13609;SDS011;6876;50.788;4.940;2023-06-22T01:52:41;8.13;;;6.10;;
13609;SDS011;6876;50.788;4.940;2023-06-22T01:55:29;8.45;;;6.68;;
13609;SDS011;6876;50.788;4.940;2023-06-22T01:58:16;7.63;;;6.80;;
13609;SDS011;6876;50.788;4.940;2023-06-22T02:01:06;7.15;;;6.38;;
13609;SDS011;6876;50.788;4.940;2023-06-22T02:04:01;7.38;;;6.13;;
13609;SDS011;6876;50.788;4.940;2023-06-22T02:06:54;7.70;;;6.57;;
13609;SDS011;6876;50.788;4.940;2023-06-22T02:09:45;6.65;;;5.97;;
13609;SDS011;6876;50.788;4.940;2023-06-22T02:12:35;7.20;;;6.38;;
13609;SDS011;6876;50.788;4.940;2023-06-22T02:15:23;6.55;;;5.95;;
13609;SDS011;6876;50.788;4.940;2023-06-22T02:18:11;7.70;;;6.05;;
13609;SDS011;6876;50.788;4.940;2023-06-22T02:21:00;6.25;;;5.65;;
13609;SDS011;6876;50.788;4.940;2023-06-22T02:23:47;7.78;;;6.35;;
13609;SDS011;6876;50.788;4.940;2023-06-22T02:26:34;8.50;;;6.43;;
13609;SDS011;6876;50.788;4.940;2023-06-22T02:29:24;6.93;;;5.47;;
13609;SDS011;6876;50.788;4.940;2023-06-22T02:32:12;8.25;;;5.90;;
13609;SDS011;6876;50.788;4.940;2023-06-22T02:35:00;7.13;;;5.78;;
13609;SDS011;6876;50.788;4.940;2023-06-22T02:37:51;7.00;;;5.72;;
13609;SDS011;6876;50.788;4.940;2023-06-22T02:40:38;6.90;;;5.47;;
13609;SDS011;6876;50.788;4.940;2023-06-22T02:43:25;8.23;;;5.28;;
13609;SDS011;6876;50.788;4.940;2023-06-22T02:46:13;6.93;;;5.65;;
13609;SDS011;6876;50.788;4.940;2023-06-22T02:49:00;6.85;;;6.03;;
13609;SDS011;6876;50.788;4.940;2023-06-22T02:51:47;7.57;;;5.63;;
13609;SDS011;6876;50.788;4.940;2023-06-22T02:54:36;6.28;;;5.50;;
13609;SDS011;6876;50.788;4.940;2023-06-22T02:57:23;7.25;;;5.40;;
13609;SDS011;6876;50.788;4.940;2023-06-22T03:00:12;6.43;;;5.82;;
13609;SDS011;6876;50.788;4.940;2023-06-22T03:03:02;7.10;;;5.93;;
13609;SDS011;6876;50.788;4.940;2023-06-22T03:05:50;6.75;;;6.15;;
13609;SDS011;6876;50.788;4.940;2023-06-22T03:08:38;9.15;;;6.07;;
13609;SDS011;6876;50.788;4.940;2023-06-22T03:11:28;7.25;;;5.97;;
13609;SDS011;6876;50.788;4.940;2023-06-22T03:14:15;8.40;;;6.47;;
13609;SDS011;6876;50.788;4.940;2023-06-22T03:17:03;6.88;;;5.82;;
13609;SDS011;6876;50.788;4.940;2023-06-22T03:19:51;9.43;;;7.25;;
13609;SDS011;6876;50.788;4.940;2023-06-22T03:22:39;7.35;;;6.47;;
13609;SDS011;6876;50.788;4.940;2023-06-22T03:25:27;8.25;;;6.93;;
13609;SDS011;6876;50.788;4.940;2023-06-22T03:28:15;8.77;;;7.70;;
13609;SDS011;6876;50.788;4.940;2023-06-22T03:31:03;10.02;;;8.20;;
13609;SDS011;6876;50.788;4.940;2023-06-22T03:33:52;8.85;;;7.70;;
13609;SDS011;6876;50.788;4.940;2023-06-22T03:36:39;10.45;;;7.20;;
13609;SDS011;6876;50.788;4.940;2023-06-22T03:39:26;9.52;;;7.70;;
13609;SDS011;6876;50.788;4.940;2023-06-22T03:42:13;10.68;;;9.05;;
13609;SDS011;6876;50.788;4.940;2023-06-22T03:45:02;10.27;;;9.18;;
13609;SDS011;6876;50.788;4.940;2023-06-22T03:47:50;8.88;;;8.07;;
13609;SDS011;6876;50.788;4.940;2023-06-22T03:50:37;9.82;;;8.77;;
13609;SDS011;6876;50.788;4.940;2023-06-22T03:53:25;11.80;;;9.68;;
13609;SDS011;6876;50.788;4.940;2023-06-22T03:56:12;15.73;;;8.32;;
13609;SDS011;6876;50.788;4.940;2023-06-22T03:59:05;10.38;;;8.85;;
13609;SDS011;6876;50.788;4.940;2023-06-22T04:01:54;10.07;;;8.95;;
13609;SDS011;6876;50.788;4.940;2023-06-22T04:04:41;11.75;;;10.55;;
13609;SDS011;6876;50.788;4.940;2023-06-22T04:07:28;13.70;;;10.45;;
13609;SDS011;6876;50.788;4.940;2023-06-22T04:10:15;15.90;;;11.57;;
13609;SDS011;6876;50.788;4.940;2023-06-22T04:13:03;13.15;;;11.40;;
13609;SDS011;6876;50.788;4.940;2023-06-22T04:15:50;16.17;;;12.13;;
13609;SDS011;6876;50.788;4.940;2023-06-22T04:18:38;15.13;;;10.95;;
13609;SDS011;6876;50.788;4.940;2023-06-22T04:21:27;17.10;;;11.30;;
13609;SDS011;6876;50.788;4.940;2023-06-22T04:24:14;11.07;;;8.85;;
13609;SDS011;6876;50.788;4.940;2023-06-22T04:27:01;16.88;;;13.02;;
13609;SDS011;6876;50.788;4.940;2023-06-22T04:29:49;15.00;;;13.40;;
13609;SDS011;6876;50.788;4.940;2023-06-22T04:32:36;15.77;;;12.18;;
13609;SDS011;6876;50.788;4.940;2023-06-22T04:35:26;14.73;;;12.50;;
13609;SDS011;6876;50.788;4.940;2023-06-22T04:38:14;18.35;;;13.18;;
13609;SDS011;6876;50.788;4.940;2023-06-22T04:41:01;14.25;;;11.65;;
13609;SDS011;6876;50.788;4.940;2023-06-22T04:43:49;12.93;;;11.68;;
13609;SDS011;6876;50.788;4.940;2023-06-22T04:46:39;14.93;;;13.52;;
13609;SDS011;6876;50.788;4.940;2023-06-22T04:49:27;16.55;;;13.05;;
13609;SDS011;6876;50.788;4.940;2023-06-22T04:52:20;12.40;;;11.23;;
13609;SDS011;6876;50.788;4.940;2023-06-22T04:55:10;15.13;;;13.15;;
13609;SDS011;6876;50.788;4.940;2023-06-22T04:57:57;17.25;;;13.70;;
13609;SDS011;6876;50.788;4.940;2023-06-22T05:00:50;15.52;;;13.43;;
13609;SDS011;6876;50.788;4.940;2023-06-22T05:03:37;15.15;;;13.52;;
13609;SDS011;6876;50.788;4.940;2023-06-22T05:06:27;15.73;;;12.70;;
13609;SDS011;6876;50.788;4.940;2023-06-22T05:09:16;16.30;;;14.68;;
13609;SDS011;6876;50.788;4.940;2023-06-22T05:12:04;18.00;;;14.63;;
13609;SDS011;6876;50.788;4.940;2023-06-22T05:14:53;16.70;;;14.93;;
13609;SDS011;6876;50.788;4.940;2023-06-22T05:17:40;18.02;;;13.73;;
13609;SDS011;6876;50.788;4.940;2023-06-22T05:20:28;14.02;;;12.63;;
13609;SDS011;6876;50.788;4.940;2023-06-22T05:23:15;19.10;;;13.48;;
13609;SDS011;6876;50.788;4.940;2023-06-22T05:26:04;19.40;;;14.05;;
13609;SDS011;6876;50.788;4.940;2023-06-22T05:28:51;15.13;;;13.57;;
13609;SDS011;6876;50.788;4.940;2023-06-22T05:31:39;16.10;;;13.90;;
13609;SDS011;6876;50.788;4.940;2023-06-22T05:34:27;17.55;;;14.35;;
13609;SDS011;6876;50.788;4.940;2023-06-22T05:37:14;16.80;;;15.00;;
13609;SDS011;6876;50.788;4.940;2023-06-22T05:40:01;22.33;;;15.60;;
13609;SDS011;6876;50.788;4.940;2023-06-22T05:42:50;17.15;;;13.90;;
13609;SDS011;6876;50.788;4.940;2023-06-22T05:45:37;16.92;;;14.80;;
13609;SDS011;6876;50.788;4.940;2023-06-22T05:48:25;16.52;;;14.32;;
13609;SDS011;6876;50.788;4.940;2023-06-22T05:51:12;16.95;;;14.48;;
13609;SDS011;6876;50.788;4.940;2023-06-22T05:53:59;16.63;;;14.90;;
13609;SDS011;6876;50.788;4.940;2023-06-22T05:56:46;21.77;;;16.17;;
13609;SDS011;6876;50.788;4.940;2023-06-22T05:59:35;18.85;;;14.98;;
13609;SDS011;6876;50.788;4.940;2023-06-22T06:02:22;17.08;;;14.98;;
13609;SDS011;6876;50.788;4.940;2023-06-22T06:05:10;23.45;;;15.48;;
13609;SDS011;6876;50.788;4.940;2023-06-22T06:08:00;19.77;;;15.80;;
13609;SDS011;6876;50.788;4.940;2023-06-22T06:10:48;20.65;;;15.95;;
13609;SDS011;6876;50.788;4.940;2023-06-22T06:13:35;19.50;;;15.93;;
13609;SDS011;6876;50.788;4.940;2023-06-22T06:16:24;19.08;;;15.35;;
13609;SDS011;6876;50.788;4.940;2023-06-22T06:19:11;18.15;;;15.90;;
13609;SDS011;6876;50.788;4.940;2023-06-22T06:21:58;18.92;;;16.10;;
13609;SDS011;6876;50.788;4.940;2023-06-22T06:24:46;19.80;;;15.95;;
13609;SDS011;6876;50.788;4.940;2023-06-22T06:27:34;20.38;;;17.45;;
13609;SDS011;6876;50.788;4.940;2023-06-22T06:30:21;18.58;;;16.58;;
13609;SDS011;6876;50.788;4.940;2023-06-22T06:33:10;18.95;;;15.73;;
13609;SDS011;6876;50.788;4.940;2023-06-22T06:35:57;21.92;;;16.80;;
13609;SDS011;6876;50.788;4.940;2023-06-22T06:38:47;29.48;;;16.75;;
13609;SDS011;6876;50.788;4.940;2023-06-22T06:41:34;23.90;;;17.00;;
13609;SDS011;6876;50.788;4.940;2023-06-22T06:44:22;24.77;;;16.48;;
13609;SDS011;6876;50.788;4.940;2023-06-22T06:47:09;21.38;;;16.98;;
13609;SDS011;6876;50.788;4.940;2023-06-22T06:49:57;17.42;;;15.63;;
13609;SDS011;6876;50.788;4.940;2023-06-22T06:52:45;19.90;;;16.27;;
13609;SDS011;6876;50.788;4.940;2023-06-22T06:55:32;19.75;;;16.13;;
13609;SDS011;6876;50.788;4.940;2023-06-22T06:58:19;22.77;;;16.25;;
13609;SDS011;6876;50.788;4.940;2023-06-22T07:01:08;21.42;;;15.63;;
13609;SDS011;6876;50.788;4.940;2023-06-22T07:03:56;18.83;;;15.45;;
13609;SDS011;6876;50.788;4.940;2023-06-22T07:06:45;21.27;;;16.20;;
13609;SDS011;6876;50.788;4.940;2023-06-22T07:09:32;18.17;;;14.82;;
13609;SDS011;6876;50.788;4.940;2023-06-22T07:12:19;20.60;;;14.68;;
13609;SDS011;6876;50.788;4.940;2023-06-22T07:15:07;18.20;;;14.35;;
13609;SDS011;6876;50.788;4.940;2023-06-22T07:17:55;17.70;;;14.35;;
13609;SDS011;6876;50.788;4.940;2023-06-22T07:20:42;17.25;;;12.95;;
13609;SDS011;6876;50.788;4.940;2023-06-22T07:23:31;14.57;;;13.07;;
13609;SDS011;6876;50.788;4.940;2023-06-22T07:26:18;15.63;;;12.57;;
13609;SDS011;6876;50.788;4.940;2023-06-22T07:29:05;18.35;;;13.10;;
13609;SDS011;6876;50.788;4.940;2023-06-22T07:31:53;22.17;;;13.38;;
13609;SDS011;6876;50.788;4.940;2023-06-22T07:34:41;18.25;;;12.73;;
13609;SDS011;6876;50.788;4.940;2023-06-22T07:37:29;23.02;;;12.15;;
13609;SDS011;6876;50.788;4.940;2023-06-22T07:40:19;23.50;;;12.32;;
13609;SDS011;6876;50.788;4.940;2023-06-22T07:43:07;28.02;;;12.18;;
13609;SDS011;6876;50.788;4.940;2023-06-22T07:45:54;27.65;;;13.13;;
13609;SDS011;6876;50.788;4.940;2023-06-22T07:48:41;23.17;;;12.73;;
13609;SDS011;6876;50.788;4.940;2023-06-22T07:51:29;31.83;;;14.70;;
13609;SDS011;6876;50.788;4.940;2023-06-22T07:54:16;24.77;;;13.07;;
13609;SDS011;6876;50.788;4.940;2023-06-22T07:57:05;26.73;;;13.43;;
13609;SDS011;6876;50.788;4.940;2023-06-22T07:59:52;25.85;;;13.70;;
13609;SDS011;6876;50.788;4.940;2023-06-22T08:02:40;32.45;;;13.32;;
13609;SDS011;6876;50.788;4.940;2023-06-22T08:05:27;49.70;;;14.38;;
13609;SDS011;6876;50.788;4.940;2023-06-22T08:08:15;29.30;;;13.32;;
13609;SDS011;6876;50.788;4.940;2023-06-22T08:11:02;35.20;;;13.65;;
13609;SDS011;6876;50.788;4.940;2023-06-22T08:13:51;39.10;;;14.18;;
13609;SDS011;6876;50.788;4.940;2023-06-22T08:16:40;21.13;;;13.63;;
13609;SDS011;6876;50.788;4.940;2023-06-22T08:19:28;22.20;;;15.23;;
13609;SDS011;6876;50.788;4.940;2023-06-22T08:22:15;22.92;;;15.15;;
13609;SDS011;6876;50.788;4.940;2023-06-22T08:25:03;19.00;;;14.52;;
13609;SDS011;6876;50.788;4.940;2023-06-22T08:27:51;24.05;;;14.90;;
13609;SDS011;6876;50.788;4.940;2023-06-22T08:30:40;20.52;;;14.80;;
13609;SDS011;6876;50.788;4.940;2023-06-22T08:33:27;18.48;;;13.55;;
13609;SDS011;6876;50.788;4.940;2023-06-22T08:36:16;17.30;;;13.45;;
13609;SDS011;6876;50.788;4.940;2023-06-22T08:39:03;21.75;;;13.95;;
13609;SDS011;6876;50.788;4.940;2023-06-22T08:41:50;17.02;;;13.15;;
13609;SDS011;6876;50.788;4.940;2023-06-22T08:44:37;27.60;;;14.65;;
13609;SDS011;6876;50.788;4.940;2023-06-22T08:47:26;32.65;;;15.10;;
13609;SDS011;6876;50.788;4.940;2023-06-22T08:50:14;31.80;;;14.32;;
13609;SDS011;6876;50.788;4.940;2023-06-22T08:53:01;24.25;;;14.13;;
13609;SDS011;6876;50.788;4.940;2023-06-22T08:55:48;25.58;;;15.30;;
13609;SDS011;6876;50.788;4.940;2023-06-22T08:58:36;34.30;;;17.92;;
13609;SDS011;6876;50.788;4.940;2023-06-22T09:01:23;26.48;;;15.10;;
13609;SDS011;6876;50.788;4.940;2023-06-22T09:04:12;22.88;;;14.88;;
13609;SDS011;6876;50.788;4.940;2023-06-22T09:06:59;17.30;;;14.43;;
13609;SDS011;6876;50.788;4.940;2023-06-22T09:09:46;22.38;;;15.80;;
13609;SDS011;6876;50.788;4.940;2023-06-22T09:12:34;18.88;;;14.95;;
13609;SDS011;6876;50.788;4.940;2023-06-22T09:15:23;36.50;;;16.42;;
13609;SDS011;6876;50.788;4.940;2023-06-22T09:18:10;16.73;;;13.63;;
13609;SDS011;6876;50.788;4.940;2023-06-22T09:20:59;32.95;;;15.95;;
13609;SDS011;6876;50.788;4.940;2023-06-22T09:23:47;21.63;;;15.13;;
13609;SDS011;6876;50.788;4.940;2023-06-22T09:26:36;19.30;;;16.48;;
13609;SDS011;6876;50.788;4.940;2023-06-22T09:29:24;21.38;;;16.27;;
13609;SDS011;6876;50.788;4.940;2023-06-22T09:32:11;17.98;;;16.25;;
13609;SDS011;6876;50.788;4.940;2023-06-22T09:34:58;17.95;;;16.27;;
13609;SDS011;6876;50.788;4.940;2023-06-22T09:37:50;18.58;;;15.80;;
13609;SDS011;6876;50.788;4.940;2023-06-22T09:40:37;17.85;;;15.95;;
13609;SDS011;6876;50.788;4.940;2023-06-22T09:43:25;19.02;;;16.25;;
13609;SDS011;6876;50.788;4.940;2023-06-22T09:46:14;19.25;;;17.40;;
13609;SDS011;6876;50.788;4.940;2023-06-22T09:49:01;22.50;;;17.65;;
13609;SDS011;6876;50.788;4.940;2023-06-22T09:51:49;22.42;;;20.17;;
13609;SDS011;6876;50.788;4.940;2023-06-22T09:54:37;24.88;;;22.42;;
13609;SDS011;6876;50.788;4.940;2023-06-22T09:57:25;24.88;;;22.23;;
13609;SDS011;6876;50.788;4.940;2023-06-22T10:00:12;28.10;;;25.30;;
13609;SDS011;6876;50.788;4.940;2023-06-22T10:03:01;26.17;;;23.63;;
13609;SDS011;6876;50.788;4.940;2023-06-22T10:05:49;24.95;;;22.48;;
13609;SDS011;6876;50.788;4.940;2023-06-22T10:08:36;44.28;;;39.45;;
13609;SDS011;6876;50.788;4.940;2023-06-22T10:11:25;30.77;;;24.38;;
13609;SDS011;6876;50.788;4.940;2023-06-22T10:14:15;27.70;;;24.80;;
13609;SDS011;6876;50.788;4.940;2023-06-22T10:17:03;29.42;;;26.25;;
13609;SDS011;6876;50.788;4.940;2023-06-22T10:19:52;25.23;;;22.83;;
13609;SDS011;6876;50.788;4.940;2023-06-22T10:22:40;30.70;;;27.40;;
13609;SDS011;6876;50.788;4.940;2023-06-22T10:25:28;30.75;;;27.48;;
13609;SDS011;6876;50.788;4.940;2023-06-22T10:28:16;26.25;;;23.42;;
13609;SDS011;6876;50.788;4.940;2023-06-22T10:31:04;28.17;;;25.20;;
13609;SDS011;6876;50.788;4.940;2023-06-22T10:33:51;27.05;;;23.85;;
13609;SDS011;6876;50.788;4.940;2023-06-22T10:36:39;27.15;;;24.45;;
13609;SDS011;6876;50.788;4.940;2023-06-22T10:39:26;27.92;;;25.13;;
13609;SDS011;6876;50.788;4.940;2023-06-22T10:42:13;29.73;;;26.92;;
13609;SDS011;6876;50.788;4.940;2023-06-22T10:45:02;30.80;;;27.58;;
13609;SDS011;6876;50.788;4.940;2023-06-22T10:47:50;30.92;;;27.88;;
13609;SDS011;6876;50.788;4.940;2023-06-22T10:50:37;31.83;;;28.30;;
13609;SDS011;6876;50.788;4.940;2023-06-22T10:53:24;39.70;;;31.67;;
13609;SDS011;6876;50.788;4.940;2023-06-22T10:56:12;36.28;;;32.63;;
13609;SDS011;6876;50.788;4.940;2023-06-22T10:58:59;37.10;;;33.25;;
13609;SDS011;6876;50.788;4.940;2023-06-22T11:01:48;34.67;;;31.20;;
13609;SDS011;6876;50.788;4.940;2023-06-22T11:04:36;36.28;;;32.50;;
13609;SDS011;6876;50.788;4.940;2023-06-22T11:07:23;35.25;;;31.85;;
13609;SDS011;6876;50.788;4.940;2023-06-22T11:10:12;36.80;;;32.78;;
13609;SDS011;6876;50.788;4.940;2023-06-22T11:13:00;37.30;;;33.47;;
13609;SDS011;6876;50.788;4.940;2023-06-22T11:15:49;36.13;;;32.53;;
13609;SDS011;6876;50.788;4.940;2023-06-22T11:18:38;35.90;;;32.38;;
13609;SDS011;6876;50.788;4.940;2023-06-22T11:21:25;37.58;;;33.85;;
13609;SDS011;6876;50.788;4.940;2023-06-22T11:24:12;38.80;;;34.65;;
13609;SDS011;6876;50.788;4.940;2023-06-22T11:27:00;40.10;;;36.05;;
13609;SDS011;6876;50.788;4.940;2023-06-22T11:29:47;39.75;;;35.75;;
13609;SDS011;6876;50.788;4.940;2023-06-22T11:32:35;38.90;;;34.95;;
13609;SDS011;6876;50.788;4.940;2023-06-22T11:35:23;42.50;;;37.50;;
13609;SDS011;6876;50.788;4.940;2023-06-22T11:38:10;39.80;;;35.60;;
13609;SDS011;6876;50.788;4.940;2023-06-22T11:40:59;40.30;;;36.05;;
13609;SDS011;6876;50.788;4.940;2023-06-22T11:43:47;41.38;;;37.03;;
13609;SDS011;6876;50.788;4.940;2023-06-22T11:46:34;40.25;;;36.05;;
13609;SDS011;6876;50.788;4.940;2023-06-22T11:49:21;40.05;;;36.10;;
13609;SDS011;6876;50.788;4.940;2023-06-22T11:52:10;42.38;;;37.83;;
13609;SDS011;6876;50.788;4.940;2023-06-22T11:54:57;40.10;;;36.00;;
13609;SDS011;6876;50.788;4.940;2023-06-22T11:57:53;46.35;;;40.58;;
13609;SDS011;6876;50.788;4.940;2023-06-22T12:00:44;43.60;;;39.10;;
13609;SDS011;6876;50.788;4.940;2023-06-22T12:03:31;44.15;;;39.55;;
13609;SDS011;6876;50.788;4.940;2023-06-22T12:06:18;46.75;;;41.65;;
13609;SDS011;6876;50.788;4.940;2023-06-22T12:09:07;46.53;;;42.00;;
13609;SDS011;6876;50.788;4.940;2023-06-22T12:11:55;48.17;;;43.17;;
13609;SDS011;6876;50.788;4.940;2023-06-22T12:14:43;50.45;;;45.35;;
13609;SDS011;6876;50.788;4.940;2023-06-22T12:17:33;214.30;;;200.73;;
13609;SDS011;6876;50.788;4.940;2023-06-22T12:20:22;71.38;;;65.18;;
13609;SDS011;6876;50.788;4.940;2023-06-22T12:23:09;57.80;;;52.58;;
13609;SDS011;6876;50.788;4.940;2023-06-22T12:25:58;55.45;;;50.08;;
13609;SDS011;6876;50.788;4.940;2023-06-22T12:28:47;58.08;;;52.78;;
13609;SDS011;6876;50.788;4.940;2023-06-22T12:31:35;69.70;;;63.72;;
13609;SDS011;6876;50.788;4.940;2023-06-22T12:34:24;75.53;;;69.10;;
13609;SDS011;6876;50.788;4.940;2023-06-22T12:37:11;67.53;;;61.47;;
13609;SDS011;6876;50.788;4.940;2023-06-22T12:39:59;67.13;;;61.13;;
13609;SDS011;6876;50.788;4.940;2023-06-22T12:42:50;60.70;;;55.08;;
13609;SDS011;6876;50.788;4.940;2023-06-22T12:45:37;53.83;;;48.67;;
13609;SDS011;6876;50.788;4.940;2023-06-22T12:48:26;53.65;;;48.53;;
13609;SDS011;6876;50.788;4.940;2023-06-22T12:51:19;49.80;;;44.75;;
13609;SDS011;6876;50.788;4.940;2023-06-22T12:54:07;51.30;;;46.30;;
13609;SDS011;6876;50.788;4.940;2023-06-22T12:56:55;49.25;;;44.22;;
13609;SDS011;6876;50.788;4.940;2023-06-22T12:59:46;49.67;;;44.67;;
13609;SDS011;6876;50.788;4.940;2023-06-22T13:02:35;51.58;;;46.10;;
13609;SDS011;6876;50.788;4.940;2023-06-22T13:05:22;57.65;;;49.30;;
13609;SDS011;6876;50.788;4.940;2023-06-22T13:08:13;54.72;;;48.88;;
13609;SDS011;6876;50.788;4.940;2023-06-22T13:11:01;57.13;;;51.22;;
13609;SDS011;6876;50.788;4.940;2023-06-22T13:13:48;57.88;;;48.75;;
13609;SDS011;6876;50.788;4.940;2023-06-22T13:16:36;60.45;;;52.75;;
13609;SDS011;6876;50.788;4.940;2023-06-22T13:19:24;55.78;;;48.00;;
13609;SDS011;6876;50.788;4.940;2023-06-22T13:22:27;56.78;;;49.55;;
13609;SDS011;6876;50.788;4.940;2023-06-22T13:25:16;58.78;;;52.50;;
13609;SDS011;6876;50.788;4.940;2023-06-22T13:28:06;55.45;;;48.92;;
13609;SDS011;6876;50.788;4.940;2023-06-22T13:30:55;59.78;;;51.53;;
13609;SDS011;6876;50.788;4.940;2023-06-22T13:34:01;59.53;;;53.03;;
13609;SDS011;6876;50.788;4.940;2023-06-22T13:36:56;59.13;;;52.63;;
13609;SDS011;6876;50.788;4.940;2023-06-22T13:39:44;58.28;;;51.50;;
13609;SDS011;6876;50.788;4.940;2023-06-22T13:42:31;58.53;;;51.45;;
13609;SDS011;6876;50.788;4.940;2023-06-22T13:45:19;59.30;;;52.13;;
13609;SDS011;6876;50.788;4.940;2023-06-22T13:48:06;64.40;;;54.60;;
13609;SDS011;6876;50.788;4.940;2023-06-22T13:50:54;63.97;;;54.65;;
13609;SDS011;6876;50.788;4.940;2023-06-22T13:53:42;54.85;;;48.97;;
13609;SDS011;6876;50.788;4.940;2023-06-22T13:56:29;61.67;;;52.88;;
13609;SDS011;6876;50.788;4.940;2023-06-22T13:59:16;60.13;;;51.10;;
13609;SDS011;6876;50.788;4.940;2023-06-22T14:02:04;64.75;;;54.47;;
13609;SDS011;6876;50.788;4.940;2023-06-22T14:04:52;58.53;;;52.30;;
13609;SDS011;6876;50.788;4.940;2023-06-22T14:07:41;57.03;;;49.70;;
13609;SDS011;6876;50.788;4.940;2023-06-22T14:10:28;57.40;;;50.65;;
13609;SDS011;6876;50.788;4.940;2023-06-22T14:13:17;55.15;;;49.35;;
13609;SDS011;6876;50.788;4.940;2023-06-22T14:16:04;56.17;;;49.97;;
13609;SDS011;6876;50.788;4.940;2023-06-22T14:18:51;54.13;;;48.75;;
13609;SDS011;6876;50.788;4.940;2023-06-22T14:21:39;53.95;;;48.30;;
13609;SDS011;6876;50.788;4.940;2023-06-22T14:24:29;52.95;;;47.17;;
13609;SDS011;6876;50.788;4.940;2023-06-22T14:27:16;53.20;;;47.67;;
13609;SDS011;6876;50.788;4.940;2023-06-22T14:30:03;50.20;;;44.90;;
13609;SDS011;6876;50.788;4.940;2023-06-22T14:32:52;52.13;;;46.72;;
13609;SDS011;6876;50.788;4.940;2023-06-22T14:35:39;45.75;;;41.17;;
13609;SDS011;6876;50.788;4.940;2023-06-22T14:38:26;46.30;;;41.45;;
13609;SDS011;6876;50.788;4.940;2023-06-22T14:41:15;45.60;;;40.70;;
13609;SDS011;6876;50.788;4.940;2023-06-22T14:44:03;43.03;;;38.53;;
13609;SDS011;6876;50.788;4.940;2023-06-22T14:46:50;42.15;;;37.92;;
13609;SDS011;6876;50.788;4.940;2023-06-22T14:49:37;38.78;;;34.90;;
13609;SDS011;6876;50.788;4.940;2023-06-22T14:52:26;38.00;;;34.13;;
13609;SDS011;6876;50.788;4.940;2023-06-22T14:55:14;37.65;;;33.83;;
13609;SDS011;6876;50.788;4.940;2023-06-22T14:58:02;35.40;;;31.65;;
13609;SDS011;6876;50.788;4.940;2023-06-22T15:00:49;32.55;;;29.45;;
13609;SDS011;6876;50.788;4.940;2023-06-22T15:03:37;32.28;;;29.13;;
13609;SDS011;6876;50.788;4.940;2023-06-22T15:06:24;31.08;;;27.98;;
13609;SDS011;6876;50.788;4.940;2023-06-22T15:09:12;30.45;;;27.40;;
13609;SDS011;6876;50.788;4.940;2023-06-22T15:12:00;29.90;;;26.90;;
13609;SDS011;6876;50.788;4.940;2023-06-22T15:14:52;26.10;;;23.52;;
13609;SDS011;6876;50.788;4.940;2023-06-22T15:17:39;24.05;;;21.55;;
13609;SDS011;6876;50.788;4.940;2023-06-22T15:20:26;24.17;;;21.58;;
13609;SDS011;6876;50.788;4.940;2023-06-22T15:23:14;20.48;;;18.60;;
13609;SDS011;6876;50.788;4.940;2023-06-22T15:26:02;20.42;;;18.48;;
13609;SDS011;6876;50.788;4.940;2023-06-22T15:28:50;20.02;;;18.13;;
13609;SDS011;6876;50.788;4.940;2023-06-22T15:31:39;18.80;;;17.10;;
13609;SDS011;6876;50.788;4.940;2023-06-22T15:34:26;17.65;;;16.05;;
13609;SDS011;6876;50.788;4.940;2023-06-22T15:37:13;19.52;;;17.63;;
13609;SDS011;6876;50.788;4.940;2023-06-22T15:40:02;17.23;;;15.75;;
13609;SDS011;6876;50.788;4.940;2023-06-22T15:42:50;18.35;;;16.50;;
13609;SDS011;6876;50.788;4.940;2023-06-22T15:45:38;17.27;;;15.68;;
13609;SDS011;6876;50.788;4.940;2023-06-22T15:48:26;16.92;;;15.38;;
13609;SDS011;6876;50.788;4.940;2023-06-22T15:51:13;16.60;;;14.90;;
13609;SDS011;6876;50.788;4.940;2023-06-22T15:54:01;15.65;;;14.15;;
13609;SDS011;6876;50.788;4.940;2023-06-22T15:56:48;15.93;;;14.43;;
13609;SDS011;6876;50.788;4.940;2023-06-22T15:59:36;17.52;;;15.93;;
13609;SDS011;6876;50.788;4.940;2023-06-22T16:02:23;18.95;;;16.98;;
13609;SDS011;6876;50.788;4.940;2023-06-22T16:05:13;20.60;;;18.55;;
13609;SDS011;6876;50.788;4.940;2023-06-22T16:08:01;19.58;;;17.67;;
13609;SDS011;6876;50.788;4.940;2023-06-22T16:10:48;19.23;;;17.42;;
13609;SDS011;6876;50.788;4.940;2023-06-22T16:13:35;18.25;;;16.42;;
13609;SDS011;6876;50.788;4.940;2023-06-22T16:16:24;19.60;;;17.70;;
13609;SDS011;6876;50.788;4.940;2023-06-22T16:19:11;17.10;;;15.50;;
13609;SDS011;6876;50.788;4.940;2023-06-22T16:22:00;18.50;;;16.55;;
13609;SDS011;6876;50.788;4.940;2023-06-22T16:24:47;19.48;;;16.58;;
13609;SDS011;6876;50.788;4.940;2023-06-22T16:27:34;17.67;;;15.75;;
13609;SDS011;6876;50.788;4.940;2023-06-22T16:30:22;18.70;;;16.98;;
13609;SDS011;6876;50.788;4.940;2023-06-22T16:33:09;20.50;;;18.40;;
13609;SDS011;6876;50.788;4.940;2023-06-22T16:35:56;21.77;;;19.70;;
13609;SDS011;6876;50.788;4.940;2023-06-22T16:38:45;24.50;;;22.02;;
13609;SDS011;6876;50.788;4.940;2023-06-22T16:41:32;25.40;;;22.92;;
13609;SDS011;6876;50.788;4.940;2023-06-22T16:44:19;26.92;;;24.27;;
13609;SDS011;6876;50.788;4.940;2023-06-22T16:47:07;30.33;;;27.35;;